Time;durP1;ratioP1;P1;durP2;ratioP2;P2;SDS_P1;SDS_P2;PMS_P1;PMS_P2;Temp;Humidity;BMP_temperature;BMP_pressure;BME280_temperature;BME280_humidity;BME280_pressure;Samples;Min_cycle;Max_cycle;Signal;HPM_P1;HPM_P2
2022/09/30 00:00:09;;;;;;;;;;;13.00;99.90;;;;;;4228451;28;19911;-63
2022/09/30 00:02:11;;;;;;;;;;;13.00;99.90;;;;;;4227288;28;19965;-63
2022/09/30 00:04:13;;;;;;;;;;;13.10;99.90;;;;;;4227669;28;19961;-62
2022/09/30 00:06:13;;;;;;;;;;;13.10;99.90;;;;;;4227903;28;19968;-65
2022/09/30 00:08:14;;;;;;;;;;;13.00;99.90;;;;;;4227708;28;20368;-63
2022/09/30 00:10:16;;;;;;;;;;;13.10;99.90;;;;;;4228127;28;19912;-64
2022/09/30 00:12:17;;;;;;;;;;;13.10;99.90;;;;;;4229810;28;20337;-63
2022/09/30 00:14:19;;;;;;;;;;;13.00;99.90;;;;;;4231915;28;19912;-64
2022/09/30 00:16:21;;;;;;;;;;;13.00;99.90;;;;;;4229415;28;19957;-64
2022/09/30 00:18:22;;;;;;;;;;;13.00;99.90;;;;;;4231867;28;19925;-63
2022/09/30 00:20:22;;;;;;;;;;;13.00;99.90;;;;;;4230680;28;19985;-62
2022/09/30 00:22:23;;;;;;;;;;;13.00;99.90;;;;;;4231636;28;19916;-62
2022/09/30 00:24:24;;;;;;;;;;;13.10;99.90;;;;;;4230489;28;19912;-63
2022/09/30 00:26:25;;;;;;;;;;;13.10;99.90;;;;;;4231645;28;19935;-63
2022/09/30 00:28:26;;;;;;;;;;;13.20;99.90;;;;;;4230327;28;19916;-64
2022/09/30 00:30:27;;;;;;;;;;;13.20;99.90;;;;;;4231597;28;19911;-63
2022/09/30 00:32:28;;;;;;;;;;;13.30;99.90;;;;;;4230549;28;19965;-65
2022/09/30 00:34:29;;;;;;;;;;;13.30;99.90;;;;;;4230973;28;20405;-65
2022/09/30 00:36:30;;;;;;;;;;;13.40;99.90;;;;;;4230989;28;19953;-66
2022/09/30 00:38:31;;;;;;;;;;;13.40;99.90;;;;;;4230619;28;19908;-62
2022/09/30 00:40:32;;;;;;;;;;;13.50;99.90;;;;;;4231276;28;19908;-62
2022/09/30 00:42:33;;;;;;;;;;;13.50;99.90;;;;;;4230269;28;19953;-65
2022/09/30 00:44:46;;;;;;;;;;;13.60;99.90;;;;;;4231396;28;19915;-63
2022/09/30 00:46:47;;;;;;;;;;;13.50;99.90;;;;;;4230035;27;19961;-62
2022/09/30 00:48:52;;;;;;;;;;;13.40;99.90;;;;;;4214440;28;20391;-62
2022/09/30 00:50:54;;;;;;;;;;;13.40;99.90;;;;;;4228693;28;20264;-62
2022/09/30 00:53:04;;;;;;;;;;;13.40;99.90;;;;;;4231047;28;19912;-62
2022/09/30 00:55:07;;;;;;;;;;;13.30;99.90;;;;;;4230112;28;20320;-63
2022/09/30 00:57:08;;;;;;;;;;;13.30;99.90;;;;;;4231342;28;19953;-63
2022/09/30 00:59:15;;;;;;;;;;;13.30;99.90;;;;;;4229739;28;19968;-62
2022/09/30 01:01:16;;;;;;;;;;;13.40;99.90;;;;;;4231134;27;19981;-60
2022/09/30 01:03:18;;;;;;;;;;;13.40;99.90;;;;;;4228531;28;20313;-64
2022/09/30 01:05:19;;;;;;;;;;;13.30;99.90;;;;;;4230857;28;19908;-62
2022/09/30 01:07:22;;;;;;;;;;;13.30;99.90;;;;;;4230146;28;20280;-63
2022/09/30 01:09:23;;;;;;;;;;;13.30;99.90;;;;;;4230842;28;19908;-63
2022/09/30 01:11:26;;;;;;;;;;;13.30;99.90;;;;;;4229834;28;19903;-61
2022/09/30 01:13:29;;;;;;;;;;;13.30;99.90;;;;;;4230362;28;20367;-63
2022/09/30 01:15:38;;;;;;;;;;;13.20;99.90;;;;;;4229847;28;20425;-62
2022/09/30 01:17:55;;;;;;;;;;;13.20;99.90;;;;;;4228926;28;19915;-62
2022/09/30 01:20:16;;;;;;;;;;;13.20;99.90;;;;;;4229830;28;20397;-61
2022/09/30 01:22:26;;;;;;;;;;;13.20;99.90;;;;;;4229848;28;19965;-62
2022/09/30 01:24:35;;;;;;;;;;;13.20;99.90;;;;;;4229044;28;19960;-62
2022/09/30 01:26:51;;;;;;;;;;;13.10;99.90;;;;;;4230037;28;19965;-62
2022/09/30 01:28:52;;;;;;;;;;;13.10;99.90;;;;;;4229616;28;19961;-64
2022/09/30 01:31:05;;;;;;;;;;;13.00;99.90;;;;;;4229258;27;19916;-64
2022/09/30 01:33:09;;;;;;;;;;;13.00;99.90;;;;;;4229453;28;19912;-62
2022/09/30 01:35:29;;;;;;;;;;;13.00;99.90;;;;;;4230264;28;19984;-62
2022/09/30 01:37:41;;;;;;;;;;;13.00;99.90;;;;;;4229512;28;19957;-62
2022/09/30 01:40:00;;;;;;;;;;;12.90;99.90;;;;;;4230381;28;19912;-62
2022/09/30 01:42:09;;;;;;;;;;;12.90;99.90;;;;;;4227939;27;20345;-63
2022/09/30 01:44:16;;;;;;;;;;;13.00;99.90;;;;;;4230526;28;19912;-62
2022/09/30 01:46:31;;;;;;;;;;;13.00;99.90;;;;;;4229059;28;19908;-62
2022/09/30 01:48:41;;;;;;;;;;;13.00;99.90;;;;;;4230569;28;20325;-62
2022/09/30 01:51:00;;;;;;;;;;;13.00;99.90;;;;;;4228624;28;20314;-61
2022/09/30 01:53:10;;;;;;;;;;;12.90;99.90;;;;;;4230469;28;19961;-62
2022/09/30 01:55:16;;;;;;;;;;;12.90;99.90;;;;;;4229028;28;19912;-61
2022/09/30 01:57:33;;;;;;;;;;;12.90;99.90;;;;;;4230286;28;19920;-63
2022/09/30 01:59:41;;;;;;;;;;;12.90;99.90;;;;;;4228877;28;20334;-62
2022/09/30 02:01:46;;;;;;;;;;;12.80;99.90;;;;;;4229555;28;19915;-62
2022/09/30 02:03:49;;;;;;;;;;;12.80;99.90;;;;;;4229042;28;20341;-62
2022/09/30 02:05:54;;;;;;;;;;;12.70;99.90;;;;;;4230221;28;19911;-62
2022/09/30 02:08:15;;;;;;;;;;;12.80;99.90;;;;;;4228823;28;19920;-63
2022/09/30 02:10:26;;;;;;;;;;;12.80;99.90;;;;;;4171511;28;20421;-64
2022/09/30 02:12:30;;;;;;;;;;;12.80;99.90;;;;;;4211844;28;19916;-61
2022/09/30 02:14:31;;;;;;;;;;;12.80;99.90;;;;;;4213232;28;19912;-61
2022/09/30 02:16:42;;;;;;;;;;;12.70;99.90;;;;;;4211927;28;21464;-61
2022/09/30 02:18:47;;;;;;;;;;;12.80;99.90;;;;;;4226997;28;19915;-64
2022/09/30 02:20:53;;;;;;;;;;;12.70;99.90;;;;;;4228608;28;19908;-62
2022/09/30 02:23:06;;;;;;;;;;;12.80;99.90;;;;;;4229648;28;19911;-62
2022/09/30 02:25:11;;;;;;;;;;;12.70;99.90;;;;;;4228102;28;20302;-62
2022/09/30 02:27:18;;;;;;;;;;;12.80;99.90;;;;;;4229056;28;19919;-63
2022/09/30 02:29:22;;;;;;;;;;;12.70;99.90;;;;;;4228592;28;20320;-64
2022/09/30 02:31:24;;;;;;;;;;;12.70;99.90;;;;;;4228747;28;20318;-63
2022/09/30 02:33:31;;;;;;;;;;;12.70;99.90;;;;;;4228482;28;19912;-63
2022/09/30 02:35:36;;;;;;;;;;;12.70;99.90;;;;;;4228336;28;19969;-63
2022/09/30 02:37:40;;;;;;;;;;;12.60;99.90;;;;;;4228965;28;19912;-64
2022/09/30 02:39:47;;;;;;;;;;;12.60;99.90;;;;;;4228600;28;19961;-61
2022/09/30 02:41:52;;;;;;;;;;;12.60;99.90;;;;;;4228636;28;19969;-62
2022/09/30 02:43:53;;;;;;;;;;;12.60;99.90;;;;;;4228479;28;19908;-64
2022/09/30 02:46:13;;;;;;;;;;;12.60;99.90;;;;;;4228640;28;20249;-62
2022/09/30 02:48:17;;;;;;;;;;;12.60;99.90;;;;;;4228670;28;19920;-64
2022/09/30 02:50:20;;;;;;;;;;;12.60;99.90;;;;;;4228850;28;19912;-63
2022/09/30 02:52:29;;;;;;;;;;;12.60;99.90;;;;;;4228198;28;19941;-62
2022/09/30 02:54:35;;;;;;;;;;;12.70;99.90;;;;;;4229176;28;20869;-63
2022/09/30 02:56:41;;;;;;;;;;;12.60;99.90;;;;;;4227954;28;19908;-62
2022/09/30 02:58:44;;;;;;;;;;;12.60;99.90;;;;;;4228971;28;19976;-66
2022/09/30 03:00:45;;;;;;;;;;;12.70;99.90;;;;;;4228183;28;19989;-63
2022/09/30 03:02:47;;;;;;;;;;;12.60;99.90;;;;;;4228443;28;19969;-63
2022/09/30 03:04:48;;;;;;;;;;;12.60;99.90;;;;;;4228097;28;19912;-62
2022/09/30 03:06:50;;;;;;;;;;;12.60;99.90;;;;;;4228770;28;19957;-65
2022/09/30 03:08:51;;;;;;;;;;;12.60;99.90;;;;;;4227965;28;20408;-62
2022/09/30 03:10:52;;;;;;;;;;;12.50;99.90;;;;;;4229254;28;19915;-65
2022/09/30 03:13:09;;;;;;;;;;;12.50;99.90;;;;;;4228084;28;19916;-65
2022/09/30 03:15:30;;;;;;;;;;;12.50;99.90;;;;;;4228443;28;19973;-67
2022/09/30 03:18:03;;;;;;;;;;;12.50;99.90;;;;;;4228290;28;19988;-64
2022/09/30 03:20:12;;;;;;;;;;;12.50;99.90;;;;;;4171084;28;19980;-63
2022/09/30 03:22:23;;;;;;;;;;;12.40;99.90;;;;;;4227936;28;19911;-63
2022/09/30 03:24:34;;;;;;;;;;;12.40;99.90;;;;;;4212044;28;19982;-64
2022/09/30 03:26:35;;;;;;;;;;;12.40;99.90;;;;;;4210903;28;19916;-63
2022/09/30 03:28:41;;;;;;;;;;;12.40;99.90;;;;;;4210362;28;19966;-65
2022/09/30 03:30:46;;;;;;;;;;;12.40;99.90;;;;;;4214272;28;19945;-67
2022/09/30 03:33:06;;;;;;;;;;;12.40;99.90;;;;;;4228811;28;19907;-62
2022/09/30 03:35:25;;;;;;;;;;;12.40;99.90;;;;;;4226087;28;20698;-63
2022/09/30 03:37:32;;;;;;;;;;;12.30;99.90;;;;;;4228967;28;19970;-63
2022/09/30 03:39:43;;;;;;;;;;;12.30;99.90;;;;;;4227674;28;19912;-62
2022/09/30 03:41:53;;;;;;;;;;;12.30;99.90;;;;;;4228381;28;19942;-62
2022/09/30 03:44:01;;;;;;;;;;;12.30;99.90;;;;;;4226897;28;19920;-64
2022/09/30 03:46:01;;;;;;;;;;;12.30;99.90;;;;;;4229761;28;19928;-62
2022/09/30 03:48:04;;;;;;;;;;;12.40;99.90;;;;;;4231020;28;20375;-63
2022/09/30 03:50:07;;;;;;;;;;;12.30;99.90;;;;;;4231880;28;19907;-62
2022/09/30 03:52:09;;;;;;;;;;;12.40;99.90;;;;;;4230656;28;19912;-62
2022/09/30 03:54:11;;;;;;;;;;;12.40;99.90;;;;;;4231988;28;19907;-62
2022/09/30 03:56:12;;;;;;;;;;;12.40;99.90;;;;;;4230703;28;19981;-65
2022/09/30 03:58:14;;;;;;;;;;;12.40;99.90;;;;;;4231558;28;19973;-62
2022/09/30 04:00:15;;;;;;;;;;;12.30;99.90;;;;;;4229922;27;19936;-64
2022/09/30 04:02:16;;;;;;;;;;;12.40;99.90;;;;;;4227052;27;19916;-62
2022/09/30 04:04:17;;;;;;;;;;;12.40;99.90;;;;;;4230107;27;19919;-60
2022/09/30 04:06:19;;;;;;;;;;;12.40;99.90;;;;;;4228482;28;19920;-66
2022/09/30 04:08:21;;;;;;;;;;;12.40;99.90;;;;;;4236031;27;19919;-61
2022/09/30 04:10:22;;;;;;;;;;;12.40;99.90;;;;;;4238429;27;20616;-63
2022/09/30 04:12:23;;;;;;;;;;;12.40;99.90;;;;;;4222237;27;19908;-63
2022/09/30 04:14:24;;;;;;;;;;;12.50;99.90;;;;;;4235618;27;19916;-65
2022/09/30 04:16:27;;;;;;;;;;;12.50;99.90;;;;;;4214983;28;19961;-62
2022/09/30 04:18:30;;;;;;;;;;;12.60;99.90;;;;;;4224891;28;20056;-60
2022/09/30 04:20:31;;;;;;;;;;;12.50;99.90;;;;;;4231229;28;19963;-60
2022/09/30 04:22:32;;;;;;;;;;;12.50;99.90;;;;;;4230025;28;19953;-61
2022/09/30 04:24:33;;;;;;;;;;;12.50;99.90;;;;;;4231151;28;19969;-62
2022/09/30 04:26:34;;;;;;;;;;;12.50;99.90;;;;;;4229877;28;19911;-61
2022/09/30 04:28:35;;;;;;;;;;;12.60;99.90;;;;;;4246225;27;19925;-62
2022/09/30 04:30:36;;;;;;;;;;;12.50;99.90;;;;;;4230182;28;19915;-62
2022/09/30 04:32:40;;;;;;;;;;;12.50;99.90;;;;;;4228407;27;19939;-61
2022/09/30 04:34:41;;;;;;;;;;;12.50;99.90;;;;;;4230406;28;19912;-61
2022/09/30 04:36:42;;;;;;;;;;;12.50;99.90;;;;;;4229127;28;19942;-60
2022/09/30 04:38:43;;;;;;;;;;;12.50;99.90;;;;;;4229338;27;19934;-60
2022/09/30 04:40:44;;;;;;;;;;;12.50;99.90;;;;;;4228764;27;19916;-60
2022/09/30 04:42:46;;;;;;;;;;;12.50;99.90;;;;;;4226109;27;20457;-61
2022/09/30 04:44:47;;;;;;;;;;;12.50;99.90;;;;;;4227168;27;19927;-63
2022/09/30 04:46:49;;;;;;;;;;;12.50;99.90;;;;;;4230008;27;19916;-61
2022/09/30 04:48:50;;;;;;;;;;;12.50;99.90;;;;;;4229301;28;19923;-63
2022/09/30 04:50:53;;;;;;;;;;;12.40;99.90;;;;;;4230314;28;19912;-64
2022/09/30 04:52:55;;;;;;;;;;;12.40;99.90;;;;;;4228699;28;19916;-61
2022/09/30 04:54:57;;;;;;;;;;;12.50;99.90;;;;;;4230572;28;19908;-63
2022/09/30 04:56:58;;;;;;;;;;;12.40;99.90;;;;;;4228748;28;20040;-63
2022/09/30 04:58:59;;;;;;;;;;;12.40;99.90;;;;;;4230028;28;19916;-62
2022/09/30 05:01:01;;;;;;;;;;;12.40;99.90;;;;;;4234396;27;19916;-63
2022/09/30 05:03:02;;;;;;;;;;;12.40;99.90;;;;;;4244162;27;19915;-62
2022/09/30 05:05:03;;;;;;;;;;;12.40;99.90;;;;;;4244901;27;19912;-67
2022/09/30 05:07:07;;;;;;;;;;;12.40;99.90;;;;;;4231654;27;19965;-63
2022/09/30 05:09:08;;;;;;;;;;;12.40;99.90;;;;;;4229490;28;19969;-66
2022/09/30 05:11:12;;;;;;;;;;;12.50;99.90;;;;;;4229878;28;19908;-63
2022/09/30 05:13:13;;;;;;;;;;;12.50;99.90;;;;;;4229894;28;19957;-64
2022/09/30 05:15:14;;;;;;;;;;;12.50;99.90;;;;;;4229197;28;19951;-63
2022/09/30 05:17:14;;;;;;;;;;;12.60;99.90;;;;;;4230605;28;19908;-64
2022/09/30 05:19:16;;;;;;;;;;;12.50;99.90;;;;;;4229404;28;19916;-61
2022/09/30 05:21:19;;;;;;;;;;;12.50;99.90;;;;;;4230075;28;19912;-62
2022/09/30 05:23:20;;;;;;;;;;;12.50;99.90;;;;;;4228785;28;19907;-62
2022/09/30 05:25:22;;;;;;;;;;;12.50;99.90;;;;;;4229893;27;19908;-62
2022/09/30 05:27:23;;;;;;;;;;;12.50;99.90;;;;;;4228772;28;19912;-63
2022/09/30 05:29:24;;;;;;;;;;;12.50;99.90;;;;;;4229641;28;20378;-62
2022/09/30 05:31:25;;;;;;;;;;;12.50;99.90;;;;;;4228969;28;20352;-62
2022/09/30 05:33:28;;;;;;;;;;;12.50;99.90;;;;;;4229587;28;20352;-63
2022/09/30 05:35:29;;;;;;;;;;;12.50;99.90;;;;;;4227899;27;19999;-62
2022/09/30 05:37:30;;;;;;;;;;;12.60;99.90;;;;;;4229792;28;20006;-62
2022/09/30 05:39:31;;;;;;;;;;;12.60;99.90;;;;;;4229061;28;19964;-62
2022/09/30 05:41:32;;;;;;;;;;;12.60;99.90;;;;;;4229436;28;19918;-62
2022/09/30 05:43:33;;;;;;;;;;;12.60;99.90;;;;;;4229282;28;19912;-62
2022/09/30 05:45:34;;;;;;;;;;;12.60;99.90;;;;;;4229200;28;19908;-62
2022/09/30 05:47:35;;;;;;;;;;;12.60;99.90;;;;;;4229408;28;19908;-62
2022/09/30 05:49:36;;;;;;;;;;;12.60;99.90;;;;;;4228940;28;19912;-61
2022/09/30 05:51:37;;;;;;;;;;;12.70;99.90;;;;;;4229661;28;19961;-62
2022/09/30 05:53:38;;;;;;;;;;;12.60;99.90;;;;;;4228717;28;19911;-63
2022/09/30 05:55:38;;;;;;;;;;;12.60;99.90;;;;;;4229095;28;20011;-61
2022/09/30 05:57:39;;;;;;;;;;;12.60;99.90;;;;;;4228460;28;20479;-62
2022/09/30 05:59:40;;;;;;;;;;;12.60;99.90;;;;;;4229359;28;19920;-61
2022/09/30 06:01:41;;;;;;;;;;;12.60;99.90;;;;;;4228520;28;19908;-63
2022/09/30 06:03:43;;;;;;;;;;;12.60;99.90;;;;;;4229348;28;19914;-62
2022/09/30 06:05:44;;;;;;;;;;;12.60;99.90;;;;;;4227985;28;20349;-63
2022/09/30 06:07:45;;;;;;;;;;;12.70;99.90;;;;;;4229287;28;19919;-63
2022/09/30 06:09:46;;;;;;;;;;;12.70;99.90;;;;;;4228035;28;20460;-64
2022/09/30 06:11:47;;;;;;;;;;;12.80;99.90;;;;;;4229256;28;19911;-61
2022/09/30 06:13:48;;;;;;;;;;;12.80;99.90;;;;;;4228731;28;19952;-62
2022/09/30 06:15:56;;;;;;;;;;;12.80;99.90;;;;;;4228451;28;19970;-62
2022/09/30 06:17:58;;;;;;;;;;;12.80;99.90;;;;;;4229300;28;19949;-62
2022/09/30 06:19:59;;;;;;;;;;;12.80;99.90;;;;;;4227797;28;19941;-62
2022/09/30 06:22:00;;;;;;;;;;;12.90;99.90;;;;;;4229378;28;19916;-64
2022/09/30 06:24:01;;;;;;;;;;;12.90;99.90;;;;;;4228085;28;20367;-66
2022/09/30 06:26:03;;;;;;;;;;;12.80;99.90;;;;;;4229298;28;20359;-63
2022/09/30 06:28:04;;;;;;;;;;;12.90;99.90;;;;;;4227939;28;20337;-63
2022/09/30 06:30:05;;;;;;;;;;;12.90;99.90;;;;;;4227193;28;19919;-63
2022/09/30 06:32:06;;;;;;;;;;;12.90;99.90;;;;;;4227929;28;20317;-62
2022/09/30 06:34:07;;;;;;;;;;;12.90;99.90;;;;;;4228612;28;19915;-64
2022/09/30 06:36:09;;;;;;;;;;;12.90;99.90;;;;;;4228095;28;19977;-63
2022/09/30 06:38:10;;;;;;;;;;;12.90;99.90;;;;;;4229002;28;19969;-63
2022/09/30 06:40:11;;;;;;;;;;;13.00;99.90;;;;;;4228116;28;20005;-62
2022/09/30 06:42:11;;;;;;;;;;;13.00;99.90;;;;;;4228764;28;19956;-62
2022/09/30 06:44:12;;;;;;;;;;;13.00;99.90;;;;;;4228436;28;19908;-62
2022/09/30 06:46:13;;;;;;;;;;;13.00;99.90;;;;;;4226832;28;20371;-62
2022/09/30 06:48:15;;;;;;;;;;;13.10;99.90;;;;;;4243794;27;20002;-63
2022/09/30 06:50:16;;;;;;;;;;;13.10;99.90;;;;;;4227868;28;19912;-62
2022/09/30 06:52:18;;;;;;;;;;;13.10;99.90;;;;;;4228726;28;19977;-63
2022/09/30 06:54:20;;;;;;;;;;;13.10;99.90;;;;;;4227674;28;19912;-62
2022/09/30 06:56:21;;;;;;;;;;;13.20;99.90;;;;;;4228874;28;19912;-63
2022/09/30 06:58:23;;;;;;;;;;;13.30;99.90;;;;;;4227389;28;19962;-63
2022/09/30 07:00:25;;;;;;;;;;;13.30;99.90;;;;;;4228889;28;19969;-62
2022/09/30 07:02:26;;;;;;;;;;;13.40;99.90;;;;;;4227687;28;19953;-63
2022/09/30 07:04:27;;;;;;;;;;;13.40;99.90;;;;;;4228790;28;19961;-63
2022/09/30 07:06:28;;;;;;;;;;;13.40;99.90;;;;;;4227751;28;19908;-63
2022/09/30 07:08:30;;;;;;;;;;;13.50;99.90;;;;;;4228656;28;19934;-65
2022/09/30 07:10:31;;;;;;;;;;;13.50;99.90;;;;;;4227612;28;20367;-65
2022/09/30 07:12:33;;;;;;;;;;;13.70;99.90;;;;;;4227065;28;19918;-63
2022/09/30 07:14:35;;;;;;;;;;;13.70;99.90;;;;;;4225721;28;19968;-62
2022/09/30 07:16:37;;;;;;;;;;;13.70;99.90;;;;;;4227925;28;19912;-62
2022/09/30 07:18:38;;;;;;;;;;;13.90;99.90;;;;;;4228271;28;20352;-62
2022/09/30 07:20:39;;;;;;;;;;;13.90;99.90;;;;;;4226928;28;19912;-63
2022/09/30 07:22:40;;;;;;;;;;;14.00;99.90;;;;;;4227795;28;20015;-63
2022/09/30 07:24:41;;;;;;;;;;;14.10;99.90;;;;;;4227368;28;19912;-62
2022/09/30 07:26:44;;;;;;;;;;;14.20;99.90;;;;;;4228553;28;20310;-62
2022/09/30 07:28:45;;;;;;;;;;;14.40;99.90;;;;;;4242360;27;19923;-63
2022/09/30 07:30:46;;;;;;;;;;;14.40;99.90;;;;;;4228407;28;19953;-62
2022/09/30 07:32:47;;;;;;;;;;;14.50;99.90;;;;;;4226826;28;20443;-64
2022/09/30 07:34:48;;;;;;;;;;;14.50;99.90;;;;;;4228357;28;19908;-64
2022/09/30 07:36:49;;;;;;;;;;;14.50;99.90;;;;;;4227402;28;19957;-63
2022/09/30 07:38:50;;;;;;;;;;;14.50;99.90;;;;;;4228458;28;19907;-63
2022/09/30 07:40:52;;;;;;;;;;;14.50;99.90;;;;;;4227003;28;19915;-64
2022/09/30 07:42:53;;;;;;;;;;;14.40;99.90;;;;;;4228188;28;19953;-65
2022/09/30 07:44:53;;;;;;;;;;;14.50;99.90;;;;;;4227392;28;19907;-64
2022/09/30 07:46:55;;;;;;;;;;;14.50;99.90;;;;;;4226394;28;19977;-63
2022/09/30 07:48:59;;;;;;;;;;;14.40;99.90;;;;;;4228127;28;19937;-63
2022/09/30 07:51:00;;;;;;;;;;;14.50;99.90;;;;;;4227676;28;20330;-64
2022/09/30 07:53:01;;;;;;;;;;;14.50;99.90;;;;;;4228032;28;19908;-64
2022/09/30 07:55:02;;;;;;;;;;;14.50;99.90;;;;;;4227110;28;19912;-70
2022/09/30 07:57:03;;;;;;;;;;;14.50;99.90;;;;;;4228145;28;19911;-63
2022/09/30 07:59:05;;;;;;;;;;;14.60;99.90;;;;;;4226777;28;19969;-62
2022/09/30 08:01:06;;;;;;;;;;;14.60;99.90;;;;;;4228103;28;20428;-63
2022/09/30 08:03:07;;;;;;;;;;;14.70;99.90;;;;;;4227019;28;19911;-62
2022/09/30 08:05:08;;;;;;;;;;;14.70;99.90;;;;;;4228342;28;19957;-63
2022/09/30 08:07:09;;;;;;;;;;;14.80;99.90;;;;;;4227138;28;19911;-63
2022/09/30 08:09:10;;;;;;;;;;;14.80;99.90;;;;;;4227775;28;20335;-63
2022/09/30 08:11:13;;;;;;;;;;;14.80;99.90;;;;;;4227262;28;20519;-63
2022/09/30 08:13:15;;;;;;;;;;;14.80;99.90;;;;;;4228045;28;19912;-64
2022/09/30 08:15:16;;;;;;;;;;;14.90;99.90;;;;;;4226891;28;19907;-63
2022/09/30 08:17:17;;;;;;;;;;;15.00;99.90;;;;;;4227501;28;19912;-64
2022/09/30 08:19:21;;;;;;;;;;;15.00;99.90;;;;;;4227616;28;19912;-64
2022/09/30 08:21:22;;;;;;;;;;;15.10;99.90;;;;;;4226740;28;19907;-65
2022/09/30 08:23:23;;;;;;;;;;;15.10;99.90;;;;;;4227362;28;20029;-63
2022/09/30 08:25:26;;;;;;;;;;;15.30;99.90;;;;;;4226981;28;20557;-64
2022/09/30 08:27:27;;;;;;;;;;;15.40;99.90;;;;;;4228086;28;20322;-63
2022/09/30 08:29:28;;;;;;;;;;;15.50;99.90;;;;;;4226943;28;19998;-64
2022/09/30 08:31:29;;;;;;;;;;;15.60;99.90;;;;;;4227693;28;19914;-62
2022/09/30 08:33:30;;;;;;;;;;;15.60;99.90;;;;;;4229135;28;19908;-63
2022/09/30 08:35:33;;;;;;;;;;;15.60;99.90;;;;;;4231010;28;20393;-65
2022/09/30 08:37:34;;;;;;;;;;;15.60;99.90;;;;;;4229760;28;19953;-63
2022/09/30 08:39:36;;;;;;;;;;;15.60;99.90;;;;;;4230989;28;19977;-65
2022/09/30 08:41:55;;;;;;;;;;;15.60;99.90;;;;;;4229765;28;19907;-64
2022/09/30 08:44:02;;;;;;;;;;;15.50;99.90;;;;;;4230679;28;19916;-68
2022/09/30 08:46:10;;;;;;;;;;;15.60;99.90;;;;;;4229622;28;19992;-63
2022/09/30 08:48:14;;;;;;;;;;;15.60;99.90;;;;;;4230999;28;20252;-65
2022/09/30 08:50:20;;;;;;;;;;;15.70;99.90;;;;;;4229640;28;19938;-64
2022/09/30 08:52:23;;;;;;;;;;;15.70;99.90;;;;;;4230759;28;19965;-67
2022/09/30 08:54:28;;;;;;;;;;;15.70;99.90;;;;;;4229356;28;19916;-63
2022/09/30 08:56:30;;;;;;;;;;;15.80;99.90;;;;;;4230038;28;19916;-64
2022/09/30 08:58:42;;;;;;;;;;;15.80;99.90;;;;;;4229382;28;20324;-62
2022/09/30 09:00:43;;;;;;;;;;;15.90;99.90;;;;;;4230582;28;19916;-63
2022/09/30 09:02:48;;;;;;;;;;;15.90;99.90;;;;;;4229635;28;20352;-66
2022/09/30 09:04:51;;;;;;;;;;;15.90;99.90;;;;;;4230033;28;19961;-63
2022/09/30 09:06:56;;;;;;;;;;;15.90;99.90;;;;;;4229953;28;19904;-63
2022/09/30 09:08:57;;;;;;;;;;;16.00;99.90;;;;;;4229515;28;19920;-63
2022/09/30 09:10:58;;;;;;;;;;;16.00;99.90;;;;;;4229892;28;19911;-63
2022/09/30 09:13:08;;;;;;;;;;;16.00;99.90;;;;;;4229139;28;19920;-63
2022/09/30 09:15:10;;;;;;;;;;;16.10;99.90;;;;;;4230037;28;20417;-62
2022/09/30 09:17:11;;;;;;;;;;;16.20;99.90;;;;;;4229016;28;20222;-63
2022/09/30 09:19:16;;;;;;;;;;;16.30;99.90;;;;;;4230776;28;19907;-64
2022/09/30 09:21:20;;;;;;;;;;;16.40;99.90;;;;;;4229134;28;19980;-64
2022/09/30 09:23:21;;;;;;;;;;;16.40;99.90;;;;;;4230520;28;20325;-63
2022/09/30 09:25:26;;;;;;;;;;;16.50;99.90;;;;;;4229292;28;19911;-64
2022/09/30 09:27:36;;;;;;;;;;;16.50;99.90;;;;;;4230444;28;20360;-64
2022/09/30 09:29:41;;;;;;;;;;;16.60;99.90;;;;;;4229122;28;19920;-63
2022/09/30 09:31:42;;;;;;;;;;;16.60;99.90;;;;;;4230119;28;19980;-64
2022/09/30 09:33:43;;;;;;;;;;;16.50;99.90;;;;;;4244033;27;19912;-63
2022/09/30 09:35:47;;;;;;;;;;;16.60;99.90;;;;;;4229953;28;20376;-63
2022/09/30 09:40:24;;;;;;;;;;;16.70;99.90;;;;;;4230638;28;20492;-62
2022/09/30 09:42:33;;;;;;;;;;;16.80;99.90;;;;;;4228769;28;19977;-62
2022/09/30 09:44:34;;;;;;;;;;;16.80;99.90;;;;;;4228905;28;19912;-64
2022/09/30 09:46:50;;;;;;;;;;;16.90;99.90;;;;;;4228437;28;19930;-61
2022/09/30 09:49:22;;;;;;;;;;;16.90;99.90;;;;;;4229388;28;19958;-64
2022/09/30 09:51:36;;;;;;;;;;;17.00;99.90;;;;;;4211704;28;19921;-63
2022/09/30 09:53:37;;;;;;;;;;;17.00;99.90;;;;;;4229654;28;19988;-62
2022/09/30 09:55:38;;;;;;;;;;;17.10;99.90;;;;;;4228589;28;19912;-63
2022/09/30 09:57:40;;;;;;;;;;;17.10;99.90;;;;;;4229678;28;19915;-63
2022/09/30 10:02:25;;;;;;;;;;;17.10;99.90;;;;;;4205464;28;19916;-63
2022/09/30 10:04:28;;;;;;;;;;;17.20;99.90;;;;;;4242758;27;19915;-62
2022/09/30 10:06:41;;;;;;;;;;;17.30;99.90;;;;;;4227421;28;19919;-63
2022/09/30 10:08:52;;;;;;;;;;;17.30;99.90;;;;;;4228187;28;19965;-64
2022/09/30 10:10:56;;;;;;;;;;;17.30;99.90;;;;;;4229572;28;19969;-62
2022/09/30 10:12:57;;;;;;;;;;;17.30;99.90;;;;;;4227837;28;19911;-64
2022/09/30 10:15:00;;;;;;;;;;;17.50;99.90;;;;;;4229264;28;20193;-65
2022/09/30 10:17:02;;;;;;;;;;;17.40;99.90;;;;;;4227759;28;19912;-63
2022/09/30 10:19:15;;;;;;;;;;;17.60;99.90;;;;;;4229320;28;20317;-65
2022/09/30 10:21:19;;;;;;;;;;;17.70;99.90;;;;;;4227123;28;19953;-65
2022/09/30 10:23:27;;;;;;;;;;;17.90;99.90;;;;;;4228812;28;19907;-65
2022/09/30 10:25:29;;;;;;;;;;;18.00;99.90;;;;;;4227775;28;20321;-65
2022/09/30 10:27:33;;;;;;;;;;;18.10;99.90;;;;;;4229035;28;19908;-67
2022/09/30 10:29:34;;;;;;;;;;;18.10;99.90;;;;;;4227925;28;19923;-66
2022/09/30 10:31:37;;;;;;;;;;;18.10;99.90;;;;;;4243891;27;19983;-68
2022/09/30 10:33:41;;;;;;;;;;;18.10;99.90;;;;;;4227367;28;19903;-68
2022/09/30 10:36:03;;;;;;;;;;;18.20;99.90;;;;;;4228352;28;19907;-67
2022/09/30 10:38:04;;;;;;;;;;;18.20;99.90;;;;;;4227721;28;19949;-63
2022/09/30 10:40:07;;;;;;;;;;;18.20;99.90;;;;;;4228728;28;19908;-65
2022/09/30 10:42:14;;;;;;;;;;;18.30;99.90;;;;;;4228060;28;19949;-64
2022/09/30 10:44:17;;;;;;;;;;;18.40;99.90;;;;;;4228173;28;19961;-69
2022/09/30 10:46:29;;;;;;;;;;;18.50;99.90;;;;;;4228210;28;19957;-67
2022/09/30 10:48:32;;;;;;;;;;;18.80;99.90;;;;;;4228264;28;20202;-64
2022/09/30 10:50:33;;;;;;;;;;;18.90;99.90;;;;;;4228338;28;19964;-64
2022/09/30 10:52:37;;;;;;;;;;;19.00;99.90;;;;;;4227914;28;20011;-69
2022/09/30 10:54:52;;;;;;;;;;;19.00;99.90;;;;;;4228285;28;19908;-67
2022/09/30 10:56:53;;;;;;;;;;;19.10;99.90;;;;;;4227508;28;19953;-69
2022/09/30 10:58:55;;;;;;;;;;;19.10;99.90;;;;;;4228232;28;19926;-64
2022/09/30 11:01:05;;;;;;;;;;;19.10;99.90;;;;;;4227435;28;19911;-69
2022/09/30 11:03:13;;;;;;;;;;;19.10;99.90;;;;;;4228335;28;19996;-65
2022/09/30 11:05:21;;;;;;;;;;;19.30;99.90;;;;;;4227470;28;19916;-67
2022/09/30 11:07:26;;;;;;;;;;;19.50;99.90;;;;;;4228547;28;20348;-64
2022/09/30 11:09:35;;;;;;;;;;;19.60;99.90;;;;;;4227301;28;19981;-66
2022/09/30 11:11:38;;;;;;;;;;;19.60;99.90;;;;;;4228291;28;19912;-68
2022/09/30 11:13:42;;;;;;;;;;;19.60;99.90;;;;;;4227338;28;20364;-64
2022/09/30 11:15:49;;;;;;;;;;;19.60;99.90;;;;;;4228499;28;19916;-67
2022/09/30 11:17:59;;;;;;;;;;;19.60;99.90;;;;;;4242441;27;19908;-64
2022/09/30 11:20:08;;;;;;;;;;;19.50;99.90;;;;;;4228637;28;19916;-67
2022/09/30 11:22:21;;;;;;;;;;;19.50;99.90;;;;;;4227464;28;20363;-70
2022/09/30 11:24:33;;;;;;;;;;;19.50;99.90;;;;;;4228398;28;20960;-70
2022/09/30 11:26:37;;;;;;;;;;;19.50;99.90;;;;;;4227029;28;19953;-64
2022/09/30 11:28:40;;;;;;;;;;;19.50;99.90;;;;;;4228204;28;19961;-65
2022/09/30 11:30:50;;;;;;;;;;;19.50;99.90;;;;;;4227269;28;19908;-67
2022/09/30 11:33:09;;;;;;;;;;;19.50;99.90;;;;;;4228221;28;19994;-68
2022/09/30 11:35:22;;;;;;;;;;;19.40;99.90;;;;;;4227246;28;19912;-64
2022/09/30 11:37:32;;;;;;;;;;;19.40;99.90;;;;;;4228349;28;20275;-64
2022/09/30 11:39:51;;;;;;;;;;;19.30;99.90;;;;;;4227222;28;20439;-65
2022/09/30 11:42:04;;;;;;;;;;;19.20;99.90;;;;;;4228205;28;19964;-64
2022/09/30 11:44:26;;;;;;;;;;;19.20;99.90;;;;;;4227038;28;19957;-64
2022/09/30 11:46:45;;;;;;;;;;;19.10;99.90;;;;;;4227894;28;19916;-63
2022/09/30 11:48:52;;;;;;;;;;;19.00;99.90;;;;;;4227385;28;19968;-63
2022/09/30 11:51:05;;;;;;;;;;;18.90;99.90;;;;;;4227739;28;20250;-64
2022/09/30 11:53:06;;;;;;;;;;;18.90;99.90;;;;;;4226743;28;19958;-63
2022/09/30 11:55:22;;;;;;;;;;;18.80;99.90;;;;;;4227562;28;19912;-64
2022/09/30 11:57:23;;;;;;;;;;;18.80;99.90;;;;;;4227132;28;20468;-64
2022/09/30 11:59:48;;;;;;;;;;;18.80;99.90;;;;;;4227841;28;20053;-62
2022/09/30 12:01:50;;;;;;;;;;;18.80;99.90;;;;;;4216084;28;20450;-65
2022/09/30 12:04:11;;;;;;;;;;;18.80;99.90;;;;;;4227566;28;19908;-63
2022/09/30 12:06:33;;;;;;;;;;;18.90;99.90;;;;;;4226835;28;19909;-63
2022/09/30 12:08:39;;;;;;;;;;;18.90;99.90;;;;;;4215639;28;19907;-64